SAS3927 EKCH-ESSA
Flight info
| Callsign | SAS3927 |
|---|---|
| Flight time | 1h 4m |
| Altitude | 37000 |
| Route | KEMAX DCT RASMU DCT DETSO N873 ARS T317 ELTOK |
| Aircraft | A320/M-SDE1E2E3FGHIRWY/LB1 |
Departure
| Time | 2026-04-26 17:21 |
|---|---|
| Airport | Copenhagen Kastrup Airport (EKCH) |
Arrival
| Time | 2026-04-26 18:25 |
|---|---|
| Airport | Stockholm-Arlanda Airport (ESSA) |
| Time | Latitude | Longitude | Altitude | Speed | Heading |
|---|---|---|---|---|---|
| 2026-04-26 16:52 | 55.62645 | 12.64552 | 17 ft | 0 kts | 281° |
| 2026-04-26 17:06 | 55.62642 | 12.64585 | 17 ft | 4 kts | 278° |
| 2026-04-26 17:07 | 55.62640 | 12.64632 | 18 ft | 4 kts | 262° |
| 2026-04-26 17:07 | 55.62648 | 12.64668 | 21 ft | 4 kts | 202° |
| 2026-04-26 17:07 | 55.62644 | 12.64668 | 20 ft | 4 kts | 193° |
| 2026-04-26 17:07 | 55.62618 | 12.64657 | 18 ft | 4 kts | 191° |
| 2026-04-26 17:08 | 55.62591 | 12.64653 | 17 ft | 4 kts | 181° |
| 2026-04-26 17:08 | 55.62565 | 12.64653 | 17 ft | 4 kts | 180° |
| 2026-04-26 17:08 | 55.62538 | 12.64653 | 17 ft | 4 kts | 180° |
| 2026-04-26 17:08 | 55.62530 | 12.64653 | 17 ft | 0 kts | 180° |
| 2026-04-26 17:10 | 55.62525 | 12.64653 | 17 ft | 2 kts | 180° |
| 2026-04-26 17:10 | 55.62502 | 12.64656 | 20 ft | 5 kts | 175° |
| 2026-04-26 17:11 | 55.62462 | 12.64665 | 17 ft | 7 kts | 170° |
| 2026-04-26 17:11 | 55.62404 | 12.64676 | 18 ft | 10 kts | 179° |
| 2026-04-26 17:11 | 55.62331 | 12.64697 | 18 ft | 12 kts | 147° |
| 2026-04-26 17:11 | 55.62265 | 12.64796 | 17 ft | 14 kts | 171° |
| 2026-04-26 17:12 | 55.62067 | 12.64611 | 19 ft | 20 kts | 213° |
| 2026-04-26 17:12 | 55.61946 | 12.64505 | 17 ft | 20 kts | 185° |
| 2026-04-26 17:13 | 55.61695 | 12.64572 | 17 ft | 16 kts | 180° |
| 2026-04-26 17:13 | 55.61592 | 12.64473 | 19 ft | 18 kts | 213° |
| 2026-04-26 17:13 | 55.61347 | 12.64190 | 19 ft | 24 kts | 213° |
| 2026-04-26 17:14 | 55.61201 | 12.64022 | 19 ft | 26 kts | 213° |
| 2026-04-26 17:14 | 55.60901 | 12.63677 | 19 ft | 19 kts | 213° |
| 2026-04-26 17:14 | 55.60808 | 12.63584 | 17 ft | 8 kts | 188° |
| 2026-04-26 17:15 | 55.60773 | 12.63615 | 17 ft | 0 kts | 133° |
| 2026-04-26 17:17 | 55.60763 | 12.63634 | 17 ft | 3 kts | 133° |
| 2026-04-26 17:17 | 55.60741 | 12.63678 | 17 ft | 6 kts | 131° |
| 2026-04-26 17:18 | 55.60733 | 12.63693 | 17 ft | 0 kts | 131° |
| 2026-04-26 17:18 | 55.60733 | 12.63694 | 17 ft | 0 kts | 131° |
| 2026-04-26 17:18 | 55.60725 | 12.63710 | 17 ft | 3 kts | 131° |
| 2026-04-26 17:19 | 55.60684 | 12.63815 | 20 ft | 6 kts | 114° |
| 2026-04-26 17:19 | 55.60691 | 12.63897 | 21 ft | 9 kts | 50° |
| 2026-04-26 17:19 | 55.60749 | 12.63985 | 19 ft | 13 kts | 41° |
| 2026-04-26 17:20 | 55.60858 | 12.64153 | 18 ft | 46 kts | 41° |
| 2026-04-26 17:20 | 55.61102 | 12.64531 | 18 ft | 94 kts | 41° |
| 2026-04-26 17:20 | 55.62013 | 12.65938 | 24 ft | 164 kts | 41° |
| 2026-04-26 17:20 | 55.62881 | 12.67309 | 574 ft | 164 kts | 38° |
| 2026-04-26 17:21 | 55.63742 | 12.68638 | 1276 ft | 164 kts | 38° |
| 2026-04-26 17:21 | 55.64642 | 12.70032 | 1693 ft | 180 kts | 39° |
| 2026-04-26 17:21 | 55.65624 | 12.71565 | 2085 ft | 197 kts | 39° |
| 2026-04-26 17:21 | 55.66729 | 12.73224 | 2367 ft | 221 kts | 37° |
| 2026-04-26 17:22 | 55.67982 | 12.75060 | 2784 ft | 246 kts | 37° |
| 2026-04-26 17:22 | 55.69358 | 12.77080 | 3266 ft | 270 kts | 37° |
| 2026-04-26 17:22 | 55.70867 | 12.79307 | 3727 ft | 294 kts | 37° |
| 2026-04-26 17:22 | 55.72498 | 12.81728 | 4220 ft | 314 kts | 37° |
| 2026-04-26 17:23 | 55.74189 | 12.84259 | 4997 ft | 323 kts | 37° |
| 2026-04-26 17:23 | 55.75949 | 12.86946 | 5436 ft | 341 kts | 38° |
| 2026-04-26 17:23 | 55.77738 | 12.89752 | 6212 ft | 346 kts | 38° |
| 2026-04-26 17:23 | 55.79535 | 12.92609 | 7024 ft | 349 kts | 38° |
| 2026-04-26 17:24 | 55.81352 | 12.95507 | 7812 ft | 352 kts | 38° |
| 2026-04-26 17:24 | 55.83182 | 12.98416 | 8597 ft | 355 kts | 38° |
| 2026-04-26 17:24 | 55.85035 | 13.01352 | 9379 ft | 358 kts | 37° |
| 2026-04-26 17:24 | 55.86903 | 13.04309 | 10157 ft | 361 kts | 37° |
| 2026-04-26 17:25 | 55.88786 | 13.07286 | 10911 ft | 360 kts | 37° |
| 2026-04-26 17:25 | 55.90625 | 13.10205 | 12025 ft | 351 kts | 36° |
| 2026-04-26 17:25 | 55.92451 | 13.13105 | 12818 ft | 352 kts | 36° |
| 2026-04-26 17:25 | 55.94293 | 13.16022 | 13524 ft | 356 kts | 36° |
| 2026-04-26 17:26 | 55.96157 | 13.18976 | 14199 ft | 360 kts | 36° |
| 2026-04-26 17:26 | 55.98038 | 13.21965 | 14817 ft | 364 kts | 36° |
| 2026-04-26 17:26 | 55.99935 | 13.24985 | 15411 ft | 367 kts | 36° |
| 2026-04-26 17:26 | 56.01851 | 13.28047 | 16001 ft | 371 kts | 36° |
| 2026-04-26 17:27 | 56.03757 | 13.31099 | 16584 ft | 374 kts | 36° |
| 2026-04-26 17:27 | 56.05707 | 13.34223 | 17192 ft | 378 kts | 36° |
| 2026-04-26 17:27 | 56.07676 | 13.37385 | 17805 ft | 382 kts | 36° |
| 2026-04-26 17:27 | 56.09662 | 13.40575 | 18440 ft | 385 kts | 36° |
| 2026-04-26 17:28 | 56.11739 | 13.43607 | 19024 ft | 384 kts | 28° |
| 2026-04-26 17:28 | 56.14046 | 13.45960 | 19612 ft | 380 kts | 18° |
| 2026-04-26 17:28 | 56.16516 | 13.47575 | 20182 ft | 378 kts | 11° |
| 2026-04-26 17:28 | 56.19042 | 13.48979 | 20759 ft | 382 kts | 11° |
| 2026-04-26 17:29 | 56.21586 | 13.50401 | 21302 ft | 385 kts | 12° |
| 2026-04-26 17:29 | 56.23288 | 13.51360 | 21645 ft | 387 kts | 12° |
| 2026-04-26 17:29 | 56.26742 | 13.53314 | 22318 ft | 391 kts | 12° |
| 2026-04-26 17:29 | 56.29355 | 13.54795 | 22805 ft | 395 kts | 12° |
| 2026-04-26 17:30 | 56.31978 | 13.56287 | 23282 ft | 398 kts | 12° |
| 2026-04-26 17:30 | 56.34627 | 13.57799 | 23753 ft | 401 kts | 12° |
| 2026-04-26 17:30 | 56.37293 | 13.59325 | 24174 ft | 403 kts | 12° |
| 2026-04-26 17:30 | 56.39972 | 13.60861 | 24593 ft | 405 kts | 12° |
| 2026-04-26 17:31 | 56.42667 | 13.62405 | 24988 ft | 407 kts | 12° |
| 2026-04-26 17:31 | 56.45371 | 13.63950 | 25364 ft | 409 kts | 12° |
| 2026-04-26 17:31 | 56.48094 | 13.65504 | 25740 ft | 411 kts | 12° |
| 2026-04-26 17:31 | 56.50824 | 13.67065 | 26112 ft | 413 kts | 12° |
| 2026-04-26 17:32 | 56.53576 | 13.68642 | 26483 ft | 415 kts | 12° |
| 2026-04-26 17:32 | 56.56345 | 13.70237 | 26856 ft | 417 kts | 12° |
| 2026-04-26 17:32 | 56.59117 | 13.71836 | 27217 ft | 420 kts | 12° |
| 2026-04-26 17:32 | 56.61911 | 13.73449 | 27577 ft | 422 kts | 12° |
| 2026-04-26 17:33 | 56.64711 | 13.75065 | 27964 ft | 424 kts | 12° |
| 2026-04-26 17:33 | 56.67523 | 13.76705 | 28212 ft | 427 kts | 14° |
| 2026-04-26 17:33 | 56.70183 | 13.79242 | 28387 ft | 442 kts | 31° |
| 2026-04-26 17:34 | 56.74380 | 13.87765 | 29066 ft | 459 kts | 46° |
| 2026-04-26 17:34 | 56.76345 | 13.92344 | 29473 ft | 458 kts | 46° |
| 2026-04-26 17:34 | 56.78303 | 13.96923 | 29965 ft | 457 kts | 46° |
| 2026-04-26 17:34 | 56.80255 | 14.01499 | 30415 ft | 456 kts | 46° |
| 2026-04-26 17:35 | 56.82194 | 14.06061 | 30817 ft | 456 kts | 46° |
| 2026-04-26 17:35 | 56.84136 | 14.10640 | 31226 ft | 455 kts | 46° |
| 2026-04-26 17:35 | 56.86069 | 14.15217 | 31662 ft | 454 kts | 46° |
| 2026-04-26 17:35 | 56.87992 | 14.19794 | 32093 ft | 454 kts | 46° |
| 2026-04-26 17:36 | 56.89957 | 14.24280 | 32537 ft | 447 kts | 39° |
| 2026-04-26 17:36 | 56.92345 | 14.27711 | 32946 ft | 430 kts | 21° |
| 2026-04-26 17:36 | 56.95081 | 14.29593 | 33348 ft | 414 kts | 4° |
| 2026-04-26 17:36 | 56.97897 | 14.29804 | 33772 ft | 401 kts | 347° |
| 2026-04-26 17:37 | 57.00559 | 14.28493 | 34153 ft | 395 kts | 337° |
| 2026-04-26 17:37 | 57.03130 | 14.26728 | 34482 ft | 394 kts | 336° |
| 2026-04-26 17:37 | 57.05694 | 14.24935 | 34808 ft | 394 kts | 336° |
| 2026-04-26 17:38 | 57.10819 | 14.21330 | 35427 ft | 395 kts | 336° |
| 2026-04-26 17:38 | 57.13355 | 14.19534 | 35742 ft | 395 kts | 336° |
| 2026-04-26 17:38 | 57.15923 | 14.17697 | 36021 ft | 396 kts | 336° |
| 2026-04-26 17:38 | 57.18493 | 14.15852 | 36305 ft | 396 kts | 336° |
| 2026-04-26 17:39 | 57.21056 | 14.14007 | 36591 ft | 396 kts | 336° |
| 2026-04-26 17:39 | 57.23629 | 14.12151 | 36874 ft | 396 kts | 336° |
| 2026-04-26 17:39 | 57.26201 | 14.10292 | 37121 ft | 397 kts | 336° |
| 2026-04-26 17:39 | 57.28772 | 14.08430 | 37190 ft | 397 kts | 336° |
| 2026-04-26 17:40 | 57.32212 | 14.05936 | 37225 ft | 397 kts | 336° |
| 2026-04-26 17:40 | 57.38203 | 14.01588 | 37223 ft | 397 kts | 336° |
| 2026-04-26 17:41 | 57.40890 | 14.00278 | 37224 ft | 405 kts | 351° |
| 2026-04-26 17:41 | 57.43736 | 14.00408 | 37251 ft | 413 kts | 1° |
| 2026-04-26 17:41 | 57.49458 | 14.01614 | 37225 ft | 414 kts | 2° |
| 2026-04-26 17:42 | 57.55181 | 14.02899 | 37230 ft | 414 kts | 2° |
| 2026-04-26 17:42 | 57.60764 | 14.04147 | 37229 ft | 415 kts | 2° |
| 2026-04-26 17:43 | 57.66494 | 14.05414 | 37232 ft | 415 kts | 1° |
| 2026-04-26 17:43 | 57.72231 | 14.06670 | 37228 ft | 415 kts | 1° |
| 2026-04-26 17:44 | 57.77964 | 14.07923 | 37192 ft | 414 kts | 1° |
| 2026-04-26 17:44 | 57.83690 | 14.09182 | 37196 ft | 414 kts | 1° |
| 2026-04-26 17:45 | 57.89420 | 14.10448 | 37204 ft | 415 kts | 2° |
| 2026-04-26 17:45 | 57.95157 | 14.11734 | 37211 ft | 415 kts | 2° |
| 2026-04-26 17:46 | 58.00889 | 14.13020 | 37216 ft | 416 kts | 4° |
| 2026-04-26 17:46 | 58.03701 | 14.14523 | 37209 ft | 426 kts | 19° |
| 2026-04-26 17:46 | 58.06246 | 14.17509 | 37213 ft | 436 kts | 30° |
| 2026-04-26 17:47 | 58.10272 | 14.23256 | 37210 ft | 437 kts | 31° |
| 2026-04-26 17:47 | 58.15913 | 14.31457 | 37235 ft | 438 kts | 31° |
| 2026-04-26 17:48 | 58.20746 | 14.38484 | 37225 ft | 438 kts | 31° |
| 2026-04-26 17:48 | 58.25584 | 14.45504 | 37223 ft | 437 kts | 31° |
| 2026-04-26 17:49 | 58.30380 | 14.52485 | 37218 ft | 437 kts | 31° |
| 2026-04-26 17:49 | 58.35205 | 14.59528 | 37209 ft | 437 kts | 31° |
| 2026-04-26 17:50 | 58.40035 | 14.66600 | 37209 ft | 438 kts | 31° |
| 2026-04-26 17:50 | 58.44861 | 14.73706 | 37210 ft | 438 kts | 31° |
| 2026-04-26 17:51 | 58.49678 | 14.80845 | 37232 ft | 438 kts | 31° |
| 2026-04-26 17:51 | 58.54488 | 14.87975 | 37220 ft | 437 kts | 31° |
| 2026-04-26 17:52 | 58.59290 | 14.95118 | 37213 ft | 437 kts | 31° |
| 2026-04-26 17:52 | 58.64074 | 15.02270 | 36621 ft | 434 kts | 31° |
| 2026-04-26 17:53 | 58.66453 | 15.05842 | 35983 ft | 433 kts | 31° |
| 2026-04-26 17:53 | 58.68825 | 15.09408 | 35361 ft | 433 kts | 31° |
| 2026-04-26 17:53 | 58.71195 | 15.12967 | 34762 ft | 432 kts | 31° |
| 2026-04-26 17:54 | 58.75912 | 15.20056 | 33454 ft | 429 kts | 30° |
| 2026-04-26 17:54 | 58.78263 | 15.23605 | 32670 ft | 429 kts | 30° |
| 2026-04-26 17:54 | 58.80615 | 15.27161 | 31862 ft | 430 kts | 30° |
| 2026-04-26 17:54 | 58.82975 | 15.30735 | 31033 ft | 431 kts | 30° |
| 2026-04-26 17:55 | 58.85339 | 15.34316 | 30196 ft | 433 kts | 30° |
| 2026-04-26 17:55 | 58.87715 | 15.37930 | 29224 ft | 434 kts | 30° |
| 2026-04-26 17:55 | 58.90058 | 15.41514 | 28847 ft | 422 kts | 30° |
| 2026-04-26 17:55 | 58.92297 | 15.44970 | 28707 ft | 406 kts | 30° |
| 2026-04-26 17:56 | 58.94475 | 15.48339 | 28568 ft | 392 kts | 29° |
| 2026-04-26 17:56 | 58.98602 | 15.54700 | 27697 ft | 381 kts | 28° |
| 2026-04-26 17:57 | 59.02923 | 15.61224 | 25361 ft | 405 kts | 29° |
| 2026-04-26 17:57 | 59.05151 | 15.64615 | 24506 ft | 408 kts | 30° |
| 2026-04-26 17:57 | 59.07369 | 15.68036 | 23819 ft | 406 kts | 30° |
| 2026-04-26 17:57 | 59.09570 | 15.71463 | 23070 ft | 403 kts | 30° |
| 2026-04-26 17:58 | 59.16023 | 15.81549 | 21145 ft | 388 kts | 31° |
| 2026-04-26 17:59 | 59.20073 | 15.87896 | 20881 ft | 360 kts | 30° |
| 2026-04-26 17:59 | 59.21994 | 15.90910 | 20791 ft | 347 kts | 30° |
| 2026-04-26 17:59 | 59.23810 | 15.93772 | 20644 ft | 323 kts | 30° |
| 2026-04-26 17:59 | 59.25498 | 15.96440 | 20237 ft | 312 kts | 29° |
| 2026-04-26 18:00 | 59.27179 | 15.99070 | 19945 ft | 307 kts | 29° |
| 2026-04-26 18:00 | 59.28840 | 16.01652 | 19602 ft | 304 kts | 29° |
| 2026-04-26 18:00 | 59.30485 | 16.04212 | 19241 ft | 302 kts | 29° |
| 2026-04-26 18:00 | 59.32123 | 16.06766 | 18877 ft | 300 kts | 29° |
| 2026-04-26 18:01 | 59.33744 | 16.09305 | 18525 ft | 298 kts | 30° |
| 2026-04-26 18:01 | 59.35356 | 16.11844 | 18138 ft | 296 kts | 30° |
| 2026-04-26 18:01 | 59.36955 | 16.14377 | 17740 ft | 294 kts | 30° |
| 2026-04-26 18:01 | 59.38539 | 16.16891 | 17347 ft | 292 kts | 30° |
| 2026-04-26 18:02 | 59.40118 | 16.19392 | 16954 ft | 291 kts | 31° |
| 2026-04-26 18:02 | 59.41138 | 16.21200 | 16700 ft | 294 kts | 36° |
| 2026-04-26 18:02 | 59.42903 | 16.25292 | 16206 ft | 298 kts | 43° |
| 2026-04-26 18:02 | 59.44065 | 16.28756 | 15480 ft | 320 kts | 59° |
| 2026-04-26 18:03 | 59.44619 | 16.33276 | 15208 ft | 360 kts | 72° |
| 2026-04-26 18:03 | 59.45405 | 16.37996 | 15114 ft | 364 kts | 53° |
| 2026-04-26 18:03 | 59.46967 | 16.41792 | 15168 ft | 353 kts | 33° |
| 2026-04-26 18:03 | 59.48936 | 16.44588 | 15019 ft | 346 kts | 27° |
| 2026-04-26 18:04 | 59.50920 | 16.47220 | 14396 ft | 342 kts | 27° |
| 2026-04-26 18:04 | 59.52897 | 16.49814 | 13767 ft | 340 kts | 27° |
| 2026-04-26 18:04 | 59.54861 | 16.52367 | 13075 ft | 337 kts | 27° |
| 2026-04-26 18:05 | 59.58781 | 16.57357 | 11682 ft | 334 kts | 27° |
| 2026-04-26 18:05 | 59.60742 | 16.59798 | 11219 ft | 333 kts | 27° |
| 2026-04-26 18:05 | 59.62721 | 16.62227 | 11118 ft | 336 kts | 27° |
| 2026-04-26 18:05 | 59.64690 | 16.64628 | 11135 ft | 337 kts | 27° |
| 2026-04-26 18:06 | 59.66539 | 16.67420 | 11135 ft | 325 kts | 39° |
| 2026-04-26 18:06 | 59.68090 | 16.70491 | 11137 ft | 306 kts | 40° |
| 2026-04-26 18:06 | 59.69554 | 16.73391 | 11117 ft | 291 kts | 39° |
| 2026-04-26 18:06 | 59.70961 | 16.76175 | 10984 ft | 281 kts | 39° |
| 2026-04-26 18:07 | 59.72313 | 16.78846 | 10740 ft | 275 kts | 39° |
| 2026-04-26 18:07 | 59.73664 | 16.81509 | 10407 ft | 274 kts | 39° |
| 2026-04-26 18:07 | 59.75013 | 16.84174 | 10053 ft | 273 kts | 40° |
| 2026-04-26 18:07 | 59.75920 | 16.85971 | 9793 ft | 273 kts | 40° |
| 2026-04-26 18:08 | 59.77691 | 16.89493 | 9302 ft | 271 kts | 40° |
| 2026-04-26 18:08 | 59.79021 | 16.92143 | 8954 ft | 270 kts | 40° |
| 2026-04-26 18:08 | 59.80262 | 16.94934 | 8607 ft | 272 kts | 51° |
| 2026-04-26 18:08 | 59.81053 | 16.98370 | 8268 ft | 279 kts | 75° |
| 2026-04-26 18:09 | 59.80991 | 17.02241 | 7919 ft | 287 kts | 103° |
| 2026-04-26 18:09 | 59.80046 | 17.05720 | 7573 ft | 291 kts | 130° |
| 2026-04-26 18:09 | 59.78593 | 17.08529 | 7220 ft | 292 kts | 137° |
| 2026-04-26 18:09 | 59.77079 | 17.11189 | 7096 ft | 290 kts | 137° |
| 2026-04-26 18:10 | 59.75552 | 17.13840 | 7102 ft | 292 kts | 137° |
| 2026-04-26 18:10 | 59.74018 | 17.16493 | 7112 ft | 293 kts | 137° |
| 2026-04-26 18:10 | 59.72480 | 17.19150 | 7111 ft | 293 kts | 137° |
| 2026-04-26 18:10 | 59.70966 | 17.21763 | 7111 ft | 293 kts | 137° |
| 2026-04-26 18:11 | 59.69428 | 17.24414 | 7108 ft | 293 kts | 137° |
| 2026-04-26 18:11 | 59.67891 | 17.27066 | 7107 ft | 293 kts | 137° |
| 2026-04-26 18:11 | 59.66360 | 17.29722 | 7103 ft | 293 kts | 137° |
| 2026-04-26 18:11 | 59.64828 | 17.32378 | 7103 ft | 293 kts | 137° |
| 2026-04-26 18:12 | 59.63296 | 17.35033 | 7101 ft | 293 kts | 137° |
| 2026-04-26 18:12 | 59.61764 | 17.37689 | 7100 ft | 293 kts | 137° |
| 2026-04-26 18:12 | 59.60233 | 17.40343 | 7100 ft | 293 kts | 137° |
| 2026-04-26 18:12 | 59.58700 | 17.43002 | 7088 ft | 293 kts | 137° |
| 2026-04-26 18:13 | 59.57172 | 17.45656 | 7095 ft | 293 kts | 137° |
| 2026-04-26 18:13 | 59.55644 | 17.48311 | 7097 ft | 293 kts | 137° |
| 2026-04-26 18:13 | 59.54119 | 17.50960 | 6992 ft | 291 kts | 137° |
| 2026-04-26 18:13 | 59.53118 | 17.52696 | 6773 ft | 290 kts | 137° |
| 2026-04-26 18:14 | 59.51095 | 17.56194 | 6349 ft | 288 kts | 137° |
| 2026-04-26 18:14 | 59.49515 | 17.58609 | 6027 ft | 286 kts | 152° |
| 2026-04-26 18:14 | 59.47735 | 17.60235 | 5894 ft | 277 kts | 157° |
| 2026-04-26 18:14 | 59.45987 | 17.61686 | 5758 ft | 269 kts | 158° |
| 2026-04-26 18:15 | 59.44281 | 17.63081 | 5612 ft | 261 kts | 158° |
| 2026-04-26 18:15 | 59.42629 | 17.64427 | 5484 ft | 253 kts | 158° |
| 2026-04-26 18:15 | 59.41049 | 17.65712 | 5315 ft | 245 kts | 158° |
| 2026-04-26 18:15 | 59.39479 | 17.66984 | 5034 ft | 243 kts | 158° |
| 2026-04-26 18:16 | 59.37915 | 17.68247 | 4723 ft | 242 kts | 158° |
| 2026-04-26 18:16 | 59.34826 | 17.70835 | 4142 ft | 240 kts | 147° |
| 2026-04-26 18:16 | 59.33726 | 17.73165 | 3992 ft | 233 kts | 110° |
| 2026-04-26 18:17 | 59.33466 | 17.76188 | 3996 ft | 223 kts | 76° |
| 2026-04-26 18:17 | 59.34005 | 17.78818 | 3990 ft | 199 kts | 52° |
| 2026-04-26 18:17 | 59.34746 | 17.80977 | 3997 ft | 185 kts | 48° |
| 2026-04-26 18:17 | 59.35488 | 17.83025 | 4026 ft | 183 kts | 48° |
| 2026-04-26 18:18 | 59.36306 | 17.84870 | 4003 ft | 172 kts | 32° |
| 2026-04-26 18:18 | 59.37285 | 17.85910 | 4001 ft | 153 kts | 12° |
| 2026-04-26 18:18 | 59.38316 | 17.86331 | 4006 ft | 150 kts | 6° |
| 2026-04-26 18:18 | 59.39339 | 17.86696 | 4008 ft | 150 kts | 6° |
| 2026-04-26 18:19 | 59.40363 | 17.87062 | 4010 ft | 150 kts | 6° |
| 2026-04-26 18:19 | 59.41387 | 17.87427 | 4011 ft | 150 kts | 6° |
| 2026-04-26 18:19 | 59.42399 | 17.87789 | 4010 ft | 150 kts | 6° |
| 2026-04-26 18:19 | 59.43424 | 17.88156 | 3990 ft | 150 kts | 6° |
| 2026-04-26 18:20 | 59.44449 | 17.88523 | 3863 ft | 149 kts | 6° |
| 2026-04-26 18:20 | 59.45470 | 17.88889 | 3688 ft | 149 kts | 6° |
| 2026-04-26 18:20 | 59.46489 | 17.89254 | 3494 ft | 148 kts | 6° |
| 2026-04-26 18:20 | 59.46831 | 17.89377 | 3425 ft | 148 kts | 6° |
| 2026-04-26 18:21 | 59.48512 | 17.89980 | 3084 ft | 147 kts | 6° |
| 2026-04-26 18:21 | 59.49516 | 17.90341 | 2882 ft | 145 kts | 6° |
| 2026-04-26 18:21 | 59.50490 | 17.90692 | 2678 ft | 137 kts | 6° |
| 2026-04-26 18:21 | 59.51390 | 17.91017 | 2504 ft | 129 kts | 5° |
| 2026-04-26 18:22 | 59.52262 | 17.91330 | 2333 ft | 126 kts | 6° |
| 2026-04-26 18:22 | 59.53123 | 17.91639 | 2160 ft | 125 kts | 5° |
| 2026-04-26 18:22 | 59.53978 | 17.91946 | 1980 ft | 124 kts | 5° |
| 2026-04-26 18:22 | 59.54828 | 17.92252 | 1809 ft | 124 kts | 5° |
| 2026-04-26 18:23 | 59.55680 | 17.92559 | 1632 ft | 124 kts | 6° |
| 2026-04-26 18:23 | 59.56528 | 17.92865 | 1457 ft | 124 kts | 6° |
| 2026-04-26 18:23 | 59.57092 | 17.93068 | 1342 ft | 124 kts | 6° |
| 2026-04-26 18:23 | 59.58227 | 17.93478 | 1092 ft | 124 kts | 7° |
| 2026-04-26 18:24 | 59.58790 | 17.93683 | 967 ft | 125 kts | 6° |
| 2026-04-26 18:24 | 59.59647 | 17.93993 | 783 ft | 125 kts | 6° |
| 2026-04-26 18:24 | 59.60501 | 17.94297 | 617 ft | 125 kts | 4° |
| 2026-04-26 18:24 | 59.61360 | 17.94615 | 428 ft | 126 kts | 5° |
| 2026-04-26 18:25 | 59.62216 | 17.94937 | 260 ft | 125 kts | 4° |
| 2026-04-26 18:25 | 59.63074 | 17.95244 | 140 ft | 122 kts | 2° |
| 2026-04-26 18:25 | 59.63708 | 17.95463 | 114 ft | 51 kts | 11° |
| 2026-04-26 18:25 | 59.63957 | 17.95550 | 113 ft | 30 kts | 8° |
| 2026-04-26 18:26 | 59.64140 | 17.95518 | 110 ft | 23 kts | 342° |
| 2026-04-26 18:26 | 59.64236 | 17.95455 | 108 ft | 8 kts | 341° |
| 2026-04-26 18:26 | 59.64304 | 17.95408 | 107 ft | 13 kts | 341° |
| 2026-04-26 18:26 | 59.64389 | 17.95350 | 105 ft | 11 kts | 341° |
| 2026-04-26 18:27 | 59.64471 | 17.95333 | 105 ft | 13 kts | 8° |
| 2026-04-26 18:27 | 59.64569 | 17.95368 | 105 ft | 17 kts | 9° |
| 2026-04-26 18:27 | 59.64692 | 17.95414 | 105 ft | 18 kts | 10° |
| 2026-04-26 18:27 | 59.64808 | 17.95456 | 107 ft | 16 kts | 10° |
| 2026-04-26 18:28 | 59.64911 | 17.95494 | 109 ft | 15 kts | 11° |
| 2026-04-26 18:28 | 59.65010 | 17.95518 | 113 ft | 15 kts | 359° |
| 2026-04-26 18:28 | 59.65112 | 17.95480 | 116 ft | 15 kts | 345° |
| 2026-04-26 18:28 | 59.65209 | 17.95428 | 120 ft | 15 kts | 345° |
| 2026-04-26 18:29 | 59.65307 | 17.95376 | 127 ft | 15 kts | 345° |
| 2026-04-26 18:29 | 59.65408 | 17.95322 | 126 ft | 16 kts | 345° |
| 2026-04-26 18:29 | 59.65527 | 17.95259 | 127 ft | 19 kts | 345° |
| 2026-04-26 18:29 | 59.65660 | 17.95187 | 128 ft | 18 kts | 345° |
| 2026-04-26 18:30 | 59.65773 | 17.95128 | 124 ft | 15 kts | 344° |
| 2026-04-26 18:30 | 59.65826 | 17.94949 | 123 ft | 18 kts | 258° |
| 2026-04-26 18:30 | 59.65793 | 17.94693 | 124 ft | 19 kts | 256° |
| 2026-04-26 18:30 | 59.65763 | 17.94448 | 122 ft | 20 kts | 256° |
| 2026-04-26 18:31 | 59.65733 | 17.94210 | 123 ft | 13 kts | 256° |
| 2026-04-26 18:31 | 59.65711 | 17.94039 | 119 ft | 16 kts | 256° |
| 2026-04-26 18:31 | 59.65680 | 17.93795 | 115 ft | 21 kts | 256° |
| 2026-04-26 18:31 | 59.65645 | 17.93521 | 111 ft | 20 kts | 256° |
| 2026-04-26 18:32 | 59.65616 | 17.93280 | 108 ft | 18 kts | 256° |
| 2026-04-26 18:32 | 59.65584 | 17.93034 | 109 ft | 15 kts | 255° |
| 2026-04-26 18:32 | 59.65559 | 17.92851 | 108 ft | 15 kts | 256° |
| 2026-04-26 18:32 | 59.65532 | 17.92641 | 106 ft | 13 kts | 246° |
| 2026-04-26 18:33 | 59.65463 | 17.92596 | 107 ft | 6 kts | 160° |
| 2026-04-26 18:33 | 59.65455 | 17.92604 | 107 ft | 0 kts | 154° |
| 2026-04-26 18:33 | 59.65454 | 17.92605 | 108 ft | 0 kts | 154° |
| 2026-04-26 18:35 | 59.65451 | 17.92608 | 108 ft | 2 kts | 153° |
| 2026-04-26 18:35 | 59.65418 | 17.92643 | 111 ft | 9 kts | 151° |
| 2026-04-26 18:35 | 59.65359 | 17.92706 | 112 ft | 11 kts | 152° |
| 2026-04-26 18:36 | 59.65293 | 17.92777 | 112 ft | 10 kts | 152° |
| 2026-04-26 18:36 | 59.65272 | 17.92865 | 112 ft | 9 kts | 71° |
| 2026-04-26 18:36 | 59.65286 | 17.92942 | 112 ft | 3 kts | 70° |
| 2026-04-26 18:36 | 59.65289 | 17.92960 | 110 ft | 0 kts | 70° |
| 2026-04-26 18:37 | 59.65290 | 17.92962 | 110 ft | 0 kts | 70° |